Time,TemperatureF,DewpointF,PressureIn,WindDirection,WindDirectionDegrees,WindSpeedMPH,WindSpeedGustMPH,Humidity,HourlyPrecipIn,Conditions,Clouds,dailyrainin,SoftwareType,DateUTC
2013-11-26 00:03:00,35.5,14.0,30.38,SSE,159,0.0,2.0,41,0.00,,,0.00,weatherlink.com 1.10,2013-11-26 05:03:00,
2013-11-26 00:18:00,35.3,15.0,30.39,SSE,159,0.0,1.0,44,0.00,,,0.00,weatherlink.com 1.10,2013-11-26 05:18:00,
2013-11-26 00:33:00,35.2,19.0,30.38,South,174,2.0,2.0,53,0.00,,,0.00,weatherlink.com 1.10,2013-11-26 05:33:00,
2013-11-26 00:48:00,34.8,20.0,30.39,South,175,0.0,1.0,55,0.00,,,0.00,weatherlink.com 1.10,2013-11-26 05:48:00,
2013-11-26 01:04:00,34.5,23.0,30.38,South,175,0.0,1.0,64,0.00,,,0.00,weatherlink.com 1.10,2013-11-26 06:04:00,
2013-11-26 01:18:00,33.9,25.0,30.37,South,174,0.0,2.0,69,0.00,,,0.00,weatherlink.com 1.10,2013-11-26 06:18:00,
2013-11-26 01:33:00,33.2,25.0,30.36,South,174,0.0,0.0,72,0.00,,,0.00,weatherlink.com 1.10,2013-11-26 06:33:00,
2013-11-26 01:48:00,32.8,27.0,30.35,South,174,0.0,1.0,79,0.00,,,0.00,weatherlink.com 1.10,2013-11-26 06:48:00,
2013-11-26 02:03:00,32.5,28.0,30.35,NW,312,0.0,2.0,82,0.00,,,0.00,weatherlink.com 1.10,2013-11-26 07:03:00,
2013-11-26 02:18:00,32.4,27.0,30.34,NW,312,0.0,1.0,81,0.00,,,0.00,weatherlink.com 1.10,2013-11-26 07:18:00,
2013-11-26 02:33:00,32.4,26.0,30.33,NW,313,0.0,2.0,78,0.00,,,0.00,weatherlink.com 1.10,2013-11-26 07:33:00,
2013-11-26 02:48:00,32.3,26.0,30.32,North,5,0.0,2.0,78,0.00,,,0.00,weatherlink.com 1.10,2013-11-26 07:48:00,
2013-11-26 03:03:00,32.5,27.0,30.32,North,5,0.0,1.0,79,0.00,,,0.00,weatherlink.com 1.10,2013-11-26 08:03:00,
2013-11-26 03:18:00,32.5,26.0,30.32,North,5,1.0,1.0,78,0.00,,,0.00,weatherlink.com 1.10,2013-11-26 08:18:00,
2013-11-26 03:33:00,32.5,27.0,30.31,North,5,0.0,1.0,81,0.00,,,0.00,weatherlink.com 1.10,2013-11-26 08:33:00,
2013-11-26 03:48:00,32.5,28.0,30.31,North,5,1.0,2.0,83,0.00,,,0.00,weatherlink.com 1.10,2013-11-26 08:48:00,
2013-11-26 04:03:00,32.4,27.0,30.30,North,5,0.0,2.0,81,0.00,,,0.00,weatherlink.com 1.10,2013-11-26 09:03:00,
2013-11-26 04:18:00,32.3,28.0,30.30,North,5,0.0,1.0,83,0.00,,,0.00,weatherlink.com 1.10,2013-11-26 09:18:00,
2013-11-26 04:33:00,32.4,29.0,30.31,North,5,0.0,0.0,86,0.01,,,0.01,weatherlink.com 1.10,2013-11-26 09:33:00,
2013-11-26 04:48:00,32.2,29.0,30.31,North,5,1.0,1.0,87,0.03,,,0.03,weatherlink.com 1.10,2013-11-26 09:48:00,
2013-11-26 05:03:00,32.1,29.0,30.31,North,5,0.0,0.0,88,0.05,,,0.05,weatherlink.com 1.10,2013-11-26 10:03:00,
2013-11-26 05:18:00,32.0,29.0,30.31,North,5,0.0,1.0,89,0.06,,,0.06,weatherlink.com 1.10,2013-11-26 10:18:00,
2013-11-26 05:33:00,32.0,29.0,30.31,North,5,0.0,1.0,89,0.07,,,0.08,weatherlink.com 1.10,2013-11-26 10:33:00,
2013-11-26 05:48:00,31.7,29.0,30.30,NNE,14,0.0,0.0,88,0.06,,,0.09,weatherlink.com 1.10,2013-11-26 10:48:00,
2013-11-26 06:03:00,31.6,29.0,30.30,NNE,14,0.0,0.0,88,0.05,,,0.10,weatherlink.com 1.10,2013-11-26 11:03:00,
2013-11-26 06:18:00,31.6,29.0,30.30,NNE,14,0.0,0.0,89,0.06,,,0.12,weatherlink.com 1.10,2013-11-26 11:18:00,
2013-11-26 06:33:00,31.7,29.0,30.29,NNE,14,0.0,0.0,90,0.05,,,0.13,weatherlink.com 1.10,2013-11-26 11:33:00,
2013-11-26 06:48:00,31.9,30.0,30.29,ENE,66,0.0,0.0,91,0.05,,,0.14,weatherlink.com 1.10,2013-11-26 11:48:00,
2013-11-26 07:03:00,32.1,30.0,30.28,ENE,67,0.0,0.0,92,0.04,,,0.15,weatherlink.com 1.10,2013-11-26 12:03:00,
2013-11-26 07:18:00,32.1,30.0,30.27,ENE,65,0.0,2.0,92,0.04,,,0.16,weatherlink.com 1.10,2013-11-26 12:18:00,
2013-11-26 07:33:00,32.0,30.0,30.26,East,82,0.0,2.0,92,0.04,,,0.17,weatherlink.com 1.10,2013-11-26 12:33:00,
2013-11-26 07:49:00,32.1,30.0,30.25,NNE,30,0.0,0.0,93,0.04,,,0.18,weatherlink.com 1.10,2013-11-26 12:49:00,
2013-11-26 08:04:00,32.0,30.0,30.24,ENE,57,0.0,2.0,93,0.04,,,0.19,weatherlink.com 1.10,2013-11-26 13:04:00,
2013-11-26 08:19:00,32.1,30.0,30.24,North,9,0.0,3.0,93,0.05,,,0.21,weatherlink.com 1.10,2013-11-26 13:19:00,
2013-11-26 08:34:00,32.2,30.0,30.24,North,355,1.0,3.0,93,0.05,,,0.22,weatherlink.com 1.10,2013-11-26 13:34:00,
2013-11-26 08:49:00,32.3,31.0,30.23,NE,52,0.0,3.0,93,0.06,,,0.24,weatherlink.com 1.10,2013-11-26 13:49:00,
2013-11-26 09:04:00,32.4,31.0,30.22,NNE,13,0.0,3.0,94,0.07,,,0.26,weatherlink.com 1.10,2013-11-26 14:04:00,
2013-11-26 09:19:00,32.4,31.0,30.22,WNW,295,0.0,2.0,94,0.07,,,0.28,weatherlink.com 1.10,2013-11-26 14:19:00,
2013-11-26 09:34:00,32.4,31.0,30.22,NNW,340,0.0,3.0,94,0.08,,,0.30,weatherlink.com 1.10,2013-11-26 14:34:00,
2013-11-26 09:49:00,32.4,31.0,30.22,North,9,0.0,5.0,94,0.10,,,0.34,weatherlink.com 1.10,2013-11-26 14:49:00,
2013-11-26 10:04:00,32.5,31.0,30.21,North,360,0.0,4.0,94,0.13,,,0.39,weatherlink.com 1.10,2013-11-26 15:04:00,
2013-11-26 10:19:00,32.6,31.0,30.20,NNE,21,2.0,2.0,95,0.15,,,0.02,weatherlink.com 1.10,2013-11-26 15:19:00,
2013-11-26 10:34:00,32.7,32.0,30.18,North,5,0.0,3.0,95,0.16,,,0.05,weatherlink.com 1.10,2013-11-26 15:34:00,
2013-11-26 10:49:00,32.9,32.0,30.18,North,11,0.0,2.0,95,0.15,,,0.08,weatherlink.com 1.10,2013-11-26 15:49:00,
2013-11-26 11:04:00,33.2,32.0,30.18,North,11,0.0,0.0,95,0.14,,,0.12,weatherlink.com 1.10,2013-11-26 16:04:00,
2013-11-26 11:19:00,33.4,32.0,30.17,NNW,344,0.0,2.0,95,0.13,,,0.15,weatherlink.com 1.10,2013-11-26 16:19:00,
2013-11-26 11:34:00,33.4,32.0,30.15,NNE,21,0.0,2.0,95,0.12,,,0.17,weatherlink.com 1.10,2013-11-26 16:34:00,
2013-11-26 11:49:00,33.5,32.0,30.13,NNE,15,0.0,2.0,95,0.10,,,0.19,weatherlink.com 1.10,2013-11-26 16:49:00,
2013-11-26 12:04:00,33.6,32.0,30.11,NNE,20,1.0,4.0,95,0.08,,,0.20,weatherlink.com 1.10,2013-11-26 17:04:00,
2013-11-26 12:19:00,33.7,33.0,30.10,NE,35,2.0,3.0,95,0.09,,,0.24,weatherlink.com 1.10,2013-11-26 17:19:00,
2013-11-26 12:34:00,33.7,33.0,30.08,NE,49,1.0,5.0,95,0.10,,,0.27,weatherlink.com 1.10,2013-11-26 17:34:00,
2013-11-26 12:49:00,33.9,33.0,30.05,East,93,0.0,6.0,95,0.11,,,0.30,weatherlink.com 1.10,2013-11-26 17:49:00,
2013-11-26 13:04:00,34.0,33.0,30.03,NNW,344,3.0,4.0,95,0.12,,,0.33,weatherlink.com 1.10,2013-11-26 18:04:00,
2013-11-26 13:19:00,34.3,33.0,30.02,NNW,340,2.0,4.0,95,0.14,,,0.38,weatherlink.com 1.10,2013-11-26 18:19:00,
2013-11-26 13:34:00,34.3,33.0,30.01,North,5,1.0,4.0,95,0.16,,,0.43,weatherlink.com 1.10,2013-11-26 18:34:00,
2013-11-26 13:49:00,34.4,33.0,29.99,North,5,2.0,3.0,95,0.22,,,0.52,weatherlink.com 1.10,2013-11-26 18:49:00,
2013-11-26 14:04:00,34.7,34.0,29.97,NE,34,3.0,5.0,96,0.26,,,0.59,weatherlink.com 1.10,2013-11-26 19:04:00,
2013-11-26 14:20:00,35.2,34.0,29.96,NNE,26,0.0,4.0,96,0.26,,,0.64,weatherlink.com 1.10,2013-11-26 19:20:00,
2013-11-26 14:35:00,35.4,34.0,29.94,North,5,1.0,6.0,96,0.27,,,0.70,weatherlink.com 1.10,2013-11-26 19:35:00,
2013-11-26 14:50:00,35.5,35.0,29.92,ESE,103,2.0,4.0,96,0.24,,,0.76,weatherlink.com 1.10,2013-11-26 19:50:00,
2013-11-26 15:05:00,35.7,35.0,29.91,NNE,13,2.0,6.0,96,0.20,,,0.79,weatherlink.com 1.10,2013-11-26 20:05:00,
2013-11-26 15:20:00,36.0,35.0,29.90,North,351,1.0,4.0,96,0.17,,,0.82,weatherlink.com 1.10,2013-11-26 20:20:00,
2013-11-26 15:35:00,36.2,35.0,29.89,NE,41,1.0,3.0,96,0.16,,,0.86,weatherlink.com 1.10,2013-11-26 20:35:00,
2013-11-26 15:50:00,36.3,35.0,29.89,North,355,2.0,4.0,96,0.13,,,0.89,weatherlink.com 1.10,2013-11-26 20:50:00,
2013-11-26 16:05:00,36.3,35.0,29.86,NW,321,6.0,8.0,96,0.14,,,0.93,weatherlink.com 1.10,2013-11-26 21:05:00,
2013-11-26 16:20:00,36.5,36.0,29.86,NNW,332,3.0,4.0,96,0.15,,,0.97,weatherlink.com 1.10,2013-11-26 21:20:00,
2013-11-26 16:35:00,37.0,36.0,29.85,ENE,77,0.0,6.0,96,0.14,,,1.00,weatherlink.com 1.10,2013-11-26 21:35:00,
2013-11-26 16:50:00,37.2,36.0,29.84,WNW,295,1.0,6.0,96,0.13,,,1.02,weatherlink.com 1.10,2013-11-26 21:50:00,
2013-11-26 17:05:00,37.2,36.0,29.83,North,5,1.0,4.0,96,0.16,,,1.09,weatherlink.com 1.10,2013-11-26 22:05:00,
2013-11-26 17:20:00,37.0,36.0,29.83,NW,310,2.0,6.0,96,0.19,,,1.16,weatherlink.com 1.10,2013-11-26 22:20:00,
2013-11-26 17:35:00,36.6,36.0,29.81,NNW,328,4.0,10.0,96,0.23,,,1.23,weatherlink.com 1.10,2013-11-26 22:35:00,
2013-11-26 17:50:00,36.1,35.0,29.79,North,5,3.0,9.0,96,0.24,,,1.26,weatherlink.com 1.10,2013-11-26 22:50:00,
2013-11-26 18:05:00,36.0,35.0,29.78,NNW,342,3.0,7.0,96,0.21,,,1.30,weatherlink.com 1.10,2013-11-26 23:05:00,
2013-11-26 18:20:00,36.1,35.0,29.77,NNW,338,2.0,7.0,96,0.19,,,1.35,weatherlink.com 1.10,2013-11-26 23:20:00,
2013-11-26 18:35:00,36.3,35.0,29.77,NW,314,1.0,7.0,96,0.16,,,1.39,weatherlink.com 1.10,2013-11-26 23:35:00,
2013-11-26 18:50:00,36.6,36.0,29.76,North,5,5.0,6.0,96,0.24,,,1.50,weatherlink.com 1.10,2013-11-26 23:50:00,
2013-11-26 19:05:00,37.1,36.0,29.76,WNW,300,2.0,8.0,96,0.22,,,1.52,weatherlink.com 1.10,2013-11-27 00:05:00,
2013-11-26 19:20:00,37.4,36.0,29.75,NNW,327,3.0,9.0,96,0.26,,,1.61,weatherlink.com 1.10,2013-11-27 00:20:00,
2013-11-26 19:35:00,38.0,37.0,29.76,WSW,257,3.0,9.0,97,0.29,,,1.68,weatherlink.com 1.10,2013-11-27 00:35:00,
2013-11-26 19:50:00,39.1,38.0,29.76,West,270,1.0,11.0,96,0.22,,,1.73,weatherlink.com 1.10,2013-11-27 00:50:00,
2013-11-26 20:05:00,39.7,39.0,29.75,North,355,1.0,7.0,97,0.24,,,1.76,weatherlink.com 1.10,2013-11-27 01:05:00,
2013-11-26 20:20:00,40.2,39.0,29.74,WNW,300,1.0,6.0,97,0.17,,,1.78,weatherlink.com 1.10,2013-11-27 01:20:00,
2013-11-26 20:35:00,40.5,40.0,29.73,NNW,327,1.0,6.0,97,0.12,,,1.81,weatherlink.com 1.10,2013-11-27 01:35:00,
2013-11-26 20:50:00,40.6,40.0,29.72,NW,309,2.0,3.0,97,0.09,,,1.82,weatherlink.com 1.10,2013-11-27 01:50:00,
2013-11-26 21:05:00,40.7,40.0,29.71,NW,308,3.0,4.0,97,0.07,,,1.83,weatherlink.com 1.10,2013-11-27 02:05:00,
2013-11-26 21:20:00,40.9,40.0,29.70,NW,322,1.0,4.0,97,0.06,,,1.84,weatherlink.com 1.10,2013-11-27 02:20:00,
2013-11-26 21:36:00,41.1,40.0,29.69,NW,313,1.0,4.0,97,0.03,,,1.84,weatherlink.com 1.10,2013-11-27 02:36:00,
2013-11-26 21:51:00,41.2,40.0,29.68,NW,323,2.0,3.0,97,0.02,,,1.84,weatherlink.com 1.10,2013-11-27 02:51:00,
2013-11-26 22:06:00,41.4,41.0,29.67,NW,323,1.0,2.0,97,0.00,,,1.84,weatherlink.com 1.10,2013-11-27 03:06:00,
2013-11-26 22:21:00,41.6,41.0,29.66,NW,323,1.0,3.0,97,0.01,,,1.85,weatherlink.com 1.10,2013-11-27 03:21:00,
2013-11-26 22:36:00,41.7,41.0,29.66,SSW,212,3.0,4.0,97,0.03,,,1.87,weatherlink.com 1.10,2013-11-27 03:36:00,
2013-11-26 22:51:00,41.9,41.0,29.65,North,351,0.0,3.0,97,0.15,,,1.99,weatherlink.com 1.10,2013-11-27 03:51:00,
2013-11-26 23:06:00,42.0,41.0,29.65,East,80,1.0,2.0,97,0.26,,,2.10,weatherlink.com 1.10,2013-11-27 04:06:00,
2013-11-26 23:21:00,42.2,41.0,29.64,East,80,0.0,2.0,97,0.34,,,2.19,weatherlink.com 1.10,2013-11-27 04:21:00,
2013-11-26 23:36:00,42.2,41.0,29.64,East,101,0.0,3.0,97,0.38,,,2.25,weatherlink.com 1.10,2013-11-27 04:36:00,
2013-11-26 23:51:00,42.3,42.0,29.64,East,101,0.0,1.0,97,0.32,,,2.31,weatherlink.com 1.10,2013-11-27 04:51:00,